PWSweather.com
Personal Weather Stations
Station Observations
PALMY
Palmerston NorthNZ 4410

Palmerston NorthNZ 4410

Lat: -40.349104, Lon: 175.615094

Elevation: 75.4

Station Type: WeatherDuino Pro2

http://palmyweather.co.nz

High Low Average
Temperature 81.3°F27.4°F 52.2°F11.2°F 63.6°F17.6°F
Dew Point 56.8°F13.8°F 45.8°F7.7°F 50.6°F10.3°F
Winds 7.6 mph -12.2 mph - 0.9 mph 1.4 mph 3.5 mph 5.6 mph
Wind Gusts 24.2 mph38.9 mph 1.3 mph2.1 mph 9.3 mph15.0 mph
Humidity 81% 42% 64%
Pressure 30.03 in1016.90 in 29.91 in1012.90 in -
Precipitation 0.00 in0.00 in - -
Hour Temp Dew Point Humidity Winds Wind Gusts Pressure Precip Precip Rate Daily Precip Total
12:00 AM 55.0°F12.8°C 45.8°F7.7°C 71% 4.9 mph ENE7.9 kmh ENE 10.3 mph16.6 kmh 30.03 in1016.9 mb 0.00 in0.0 mm 0.00 in0.0 mm 0.00 in0.0 mm
12:05 AM 55.0°F12.8°C 46.1°F7.8°C 72% 4.9 mph ENE7.9 kmh ENE 11.2 mph18.0 kmh 30.03 in1016.9 mb 0.00 in0.0 mm 0.00 in0.0 mm 0.00 in0.0 mm
12:15 AM 54.9°F12.7°C 46.0°F7.8°C 72% 4.5 mph ENE7.2 kmh ENE 9.4 mph15.1 kmh 30.03 in1016.9 mb 0.00 in0.0 mm 0.00 in0.0 mm 0.00 in0.0 mm
12:20 AM 54.7°F12.6°C 46.2°F7.9°C 73% 4.5 mph ENE7.2 kmh ENE 9.4 mph15.1 kmh 30.03 in1016.9 mb 0.00 in0.0 mm 0.00 in0.0 mm 0.00 in0.0 mm
12:25 AM 54.7°F12.6°C 46.2°F7.9°C 73% 4.5 mph ENE7.2 kmh ENE 10.8 mph17.4 kmh 30.03 in1016.9 mb 0.00 in0.0 mm 0.00 in0.0 mm 0.00 in0.0 mm
12:30 AM 54.7°F12.6°C 46.2°F7.9°C 73% 4.9 mph ENE7.9 kmh ENE 10.8 mph17.4 kmh 30.03 in1016.9 mb 0.00 in0.0 mm 0.00 in0.0 mm 0.00 in0.0 mm
12:35 AM 54.9°F12.7°C 46.0°F7.8°C 72% 4.9 mph ENE7.9 kmh ENE 10.3 mph16.6 kmh 30.03 in1016.9 mb 0.00 in0.0 mm 0.00 in0.0 mm 0.00 in0.0 mm
12:40 AM 54.9°F12.7°C 46.4°F8.0°C 73% 4.5 mph ENE7.2 kmh ENE 12.5 mph20.1 kmh 30.03 in1016.9 mb 0.00 in0.0 mm 0.00 in0.0 mm 0.00 in0.0 mm
12:45 AM 54.9°F12.7°C 46.4°F8.0°C 73% 4.5 mph ENE7.2 kmh ENE 12.5 mph20.1 kmh 30.03 in1016.9 mb 0.00 in0.0 mm 0.00 in0.0 mm 0.00 in0.0 mm
12:50 AM 54.7°F12.6°C 46.2°F7.9°C 73% 4.5 mph ENE7.2 kmh ENE 11.6 mph18.7 kmh 30.02 in1016.6 mb 0.00 in0.0 mm 0.00 in0.0 mm 0.00 in0.0 mm
12:55 AM 54.5°F12.5°C 46.0°F7.8°C 73% 4.5 mph ENE7.2 kmh ENE 10.8 mph17.4 kmh 30.03 in1016.9 mb 0.00 in0.0 mm 0.00 in0.0 mm 0.00 in0.0 mm
01:00 AM 54.7°F12.6°C 46.2°F7.9°C 73% 4.5 mph ENE7.2 kmh ENE 19.3 mph31.1 kmh 30.02 in1016.6 mb 0.00 in0.0 mm 0.00 in0.0 mm 0.00 in0.0 mm
01:05 AM 54.7°F12.6°C 46.2°F7.9°C 73% 4.9 mph ENE7.9 kmh ENE 19.3 mph31.1 kmh 30.03 in1016.9 mb 0.00 in0.0 mm 0.00 in0.0 mm 0.00 in0.0 mm
01:10 AM 54.7°F12.6°C 46.2°F7.9°C 73% 4.0 mph E6.4 kmh E 11.2 mph18.0 kmh 30.02 in1016.6 mb 0.00 in0.0 mm 0.00 in0.0 mm 0.00 in0.0 mm
01:15 AM 54.9°F12.7°C 46.0°F7.8°C 72% 4.5 mph E7.2 kmh E 11.2 mph18.0 kmh 30.02 in1016.6 mb 0.00 in0.0 mm 0.00 in0.0 mm 0.00 in0.0 mm
01:20 AM 54.9°F12.7°C 46.4°F8.0°C 73% 4.0 mph E6.4 kmh E 10.3 mph16.6 kmh 30.02 in1016.6 mb 0.00 in0.0 mm 0.00 in0.0 mm 0.00 in0.0 mm
01:25 AM 54.7°F12.6°C 46.2°F7.9°C 73% 4.0 mph E6.4 kmh E 10.3 mph16.6 kmh 30.02 in1016.6 mb 0.00 in0.0 mm 0.00 in0.0 mm 0.00 in0.0 mm
01:30 AM 54.7°F12.6°C 46.2°F7.9°C 73% 4.0 mph E6.4 kmh E 9.0 mph14.5 kmh 30.02 in1016.6 mb 0.00 in0.0 mm 0.00 in0.0 mm 0.00 in0.0 mm
01:35 AM 54.7°F12.6°C 46.2°F7.9°C 73% 3.6 mph E5.8 kmh E 9.0 mph14.5 kmh 30.02 in1016.6 mb 0.00 in0.0 mm 0.00 in0.0 mm 0.00 in0.0 mm
01:40 AM 54.7°F12.6°C 46.2°F7.9°C 73% 3.1 mph ESE5.0 kmh ESE 8.5 mph13.7 kmh 30.02 in1016.6 mb 0.00 in0.0 mm 0.00 in0.0 mm 0.00 in0.0 mm
01:45 AM 54.7°F12.6°C 46.2°F7.9°C 73% 3.1 mph ESE5.0 kmh ESE 6.7 mph10.8 kmh 30.02 in1016.6 mb 0.00 in0.0 mm 0.00 in0.0 mm 0.00 in0.0 mm
01:50 AM 54.7°F12.6°C 46.6°F8.1°C 74% 3.1 mph ESE5.0 kmh ESE 6.7 mph10.8 kmh 30.02 in1016.6 mb 0.00 in0.0 mm 0.00 in0.0 mm 0.00 in0.0 mm
01:55 AM 54.5°F12.5°C 46.4°F8.0°C 74% 3.1 mph E5.0 kmh E 7.2 mph11.6 kmh 30.02 in1016.6 mb 0.00 in0.0 mm 0.00 in0.0 mm 0.00 in0.0 mm
02:00 AM 54.5°F12.5°C 46.4°F8.0°C 74% 3.6 mph E5.8 kmh E 9.4 mph15.1 kmh 30.02 in1016.6 mb 0.00 in0.0 mm 0.00 in0.0 mm 0.00 in0.0 mm
02:05 AM 54.5°F12.5°C 46.4°F8.0°C 74% 3.1 mph E5.0 kmh E 9.4 mph15.1 kmh 30.02 in1016.6 mb 0.00 in0.0 mm 0.00 in0.0 mm 0.00 in0.0 mm
02:10 AM 54.5°F12.5°C 46.4°F8.0°C 74% 3.1 mph ESE5.0 kmh ESE 9.0 mph14.5 kmh 30.02 in1016.6 mb 0.00 in0.0 mm 0.00 in0.0 mm 0.00 in0.0 mm
02:15 AM 54.5°F12.5°C 46.0°F7.8°C 73% 3.6 mph E5.8 kmh E 9.9 mph15.9 kmh 30.02 in1016.6 mb 0.00 in0.0 mm 0.00 in0.0 mm 0.00 in0.0 mm
02:20 AM 54.5°F12.5°C 46.0°F7.8°C 73% 3.6 mph E5.8 kmh E 10.3 mph16.6 kmh 30.02 in1016.6 mb 0.00 in0.0 mm 0.00 in0.0 mm 0.00 in0.0 mm
02:25 AM 54.5°F12.5°C 46.0°F7.8°C 73% 3.6 mph E5.8 kmh E 10.3 mph16.6 kmh 30.02 in1016.6 mb 0.00 in0.0 mm 0.00 in0.0 mm 0.00 in0.0 mm
02:30 AM 54.5°F12.5°C 46.0°F7.8°C 73% 3.6 mph E5.8 kmh E 24.2 mph38.9 kmh 30.02 in1016.6 mb 0.00 in0.0 mm 0.00 in0.0 mm 0.00 in0.0 mm
02:35 AM 54.5°F12.5°C 46.0°F7.8°C 73% 3.6 mph E5.8 kmh E 24.2 mph38.9 kmh 30.02 in1016.6 mb 0.00 in0.0 mm 0.00 in0.0 mm 0.00 in0.0 mm
02:40 AM 54.5°F12.5°C 46.0°F7.8°C 73% 3.6 mph E5.8 kmh E 9.9 mph15.9 kmh 30.02 in1016.6 mb 0.00 in0.0 mm 0.00 in0.0 mm 0.00 in0.0 mm
02:45 AM 54.1°F12.3°C 46.0°F7.8°C 74% 3.1 mph E5.0 kmh E 9.0 mph14.5 kmh 30.02 in1016.6 mb 0.00 in0.0 mm 0.00 in0.0 mm 0.00 in0.0 mm
02:50 AM 54.1°F12.3°C 46.0°F7.8°C 74% 3.6 mph E5.8 kmh E 8.5 mph13.7 kmh 30.01 in1016.3 mb 0.00 in0.0 mm 0.00 in0.0 mm 0.00 in0.0 mm
02:55 AM 54.0°F12.2°C 45.9°F7.7°C 74% 3.6 mph E5.8 kmh E 8.5 mph13.7 kmh 30.02 in1016.6 mb 0.00 in0.0 mm 0.00 in0.0 mm 0.00 in0.0 mm
03:00 AM 53.8°F12.1°C 46.1°F7.8°C 75% 3.1 mph E5.0 kmh E 8.5 mph13.7 kmh 30.02 in1016.6 mb 0.00 in0.0 mm 0.00 in0.0 mm 0.00 in0.0 mm
03:05 AM 53.6°F12.0°C 45.9°F7.7°C 75% 3.1 mph E5.0 kmh E 8.5 mph13.7 kmh 30.02 in1016.6 mb 0.00 in0.0 mm 0.00 in0.0 mm 0.00 in0.0 mm
03:10 AM 53.4°F11.9°C 46.0°F7.8°C 76% 2.7 mph E4.3 kmh E 6.3 mph10.1 kmh 30.02 in1016.6 mb 0.00 in0.0 mm 0.00 in0.0 mm 0.00 in0.0 mm
03:15 AM 53.4°F11.9°C 46.0°F7.8°C 76% 2.7 mph E4.3 kmh E 6.7 mph10.8 kmh 30.02 in1016.6 mb 0.00 in0.0 mm 0.00 in0.0 mm 0.00 in0.0 mm
03:20 AM 53.2°F11.8°C 45.8°F7.7°C 76% 2.7 mph E4.3 kmh E 6.7 mph10.8 kmh 30.02 in1016.6 mb 0.00 in0.0 mm 0.00 in0.0 mm 0.00 in0.0 mm
03:25 AM 53.2°F11.8°C 46.2°F7.9°C 77% 2.2 mph ESE3.5 kmh ESE 9.0 mph14.5 kmh 30.02 in1016.6 mb 0.00 in0.0 mm 0.00 in0.0 mm 0.00 in0.0 mm
03:30 AM 53.2°F11.8°C 45.8°F7.7°C 76% 2.7 mph ESE4.3 kmh ESE 9.0 mph14.5 kmh 30.02 in1016.6 mb 0.00 in0.0 mm 0.00 in0.0 mm 0.00 in0.0 mm
03:35 AM 53.2°F11.8°C 46.2°F7.9°C 77% 2.7 mph ESE4.3 kmh ESE 6.3 mph10.1 kmh 30.02 in1016.6 mb 0.00 in0.0 mm 0.00 in0.0 mm 0.00 in0.0 mm
03:40 AM 53.1°F11.7°C 46.1°F7.8°C 77% 2.7 mph SE4.3 kmh SE 5.8 mph9.3 kmh 30.02 in1016.6 mb 0.00 in0.0 mm 0.00 in0.0 mm 0.00 in0.0 mm
03:45 AM 53.2°F11.8°C 46.2°F7.9°C 77% 2.7 mph ESE4.3 kmh ESE 6.7 mph10.8 kmh 30.01 in1016.3 mb 0.00 in0.0 mm 0.00 in0.0 mm 0.00 in0.0 mm
03:50 AM 53.1°F11.7°C 46.1°F7.8°C 77% 2.7 mph ESE4.3 kmh ESE 6.7 mph10.8 kmh 30.01 in1016.3 mb 0.00 in0.0 mm 0.00 in0.0 mm 0.00 in0.0 mm
03:55 AM 53.2°F11.8°C 46.2°F7.9°C 77% 2.7 mph ESE4.3 kmh ESE 6.3 mph10.1 kmh 30.01 in1016.3 mb 0.00 in0.0 mm 0.00 in0.0 mm 0.00 in0.0 mm
04:00 AM 52.9°F11.6°C 45.9°F7.7°C 77% 2.7 mph E4.3 kmh E 6.3 mph10.1 kmh 30.02 in1016.6 mb 0.00 in0.0 mm 0.00 in0.0 mm 0.00 in0.0 mm
04:05 AM 52.9°F11.6°C 45.9°F7.7°C 77% 2.2 mph E3.5 kmh E 4.5 mph7.2 kmh 30.01 in1016.3 mb 0.00 in0.0 mm 0.00 in0.0 mm 0.00 in0.0 mm
04:10 AM 52.7°F11.5°C 46.0°F7.8°C 78% 2.2 mph SE3.5 kmh SE 4.9 mph7.9 kmh 30.01 in1016.3 mb 0.00 in0.0 mm 0.00 in0.0 mm 0.00 in0.0 mm
04:15 AM 52.5°F11.4°C 45.8°F7.7°C 78% 2.2 mph SE3.5 kmh SE 4.9 mph7.9 kmh 30.01 in1016.3 mb 0.00 in0.0 mm 0.00 in0.0 mm 0.00 in0.0 mm
04:20 AM 52.5°F11.4°C 45.8°F7.7°C 78% 1.8 mph SE2.9 kmh SE 4.5 mph7.2 kmh 30.01 in1016.3 mb 0.00 in0.0 mm 0.00 in0.0 mm 0.00 in0.0 mm
04:25 AM 52.5°F11.4°C 45.8°F7.7°C 78% 1.8 mph SE2.9 kmh SE 4.0 mph6.4 kmh 30.02 in1016.6 mb 0.00 in0.0 mm 0.00 in0.0 mm 0.00 in0.0 mm
04:30 AM 52.5°F11.4°C 45.8°F7.7°C 78% 1.8 mph SE2.9 kmh SE 4.0 mph6.4 kmh 30.02 in1016.6 mb 0.00 in0.0 mm 0.00 in0.0 mm 0.00 in0.0 mm
04:35 AM 52.3°F11.3°C 46.0°F7.8°C 79% 1.3 mph SE2.1 kmh SE 4.5 mph7.2 kmh 30.02 in1016.6 mb 0.00 in0.0 mm 0.00 in0.0 mm 0.00 in0.0 mm
04:40 AM 52.3°F11.3°C 46.0°F7.8°C 79% 1.8 mph SE2.9 kmh SE 6.3 mph10.1 kmh 30.02 in1016.6 mb 0.00 in0.0 mm 0.00 in0.0 mm 0.00 in0.0 mm
04:45 AM 52.5°F11.4°C 45.8°F7.7°C 78% 2.2 mph SE3.5 kmh SE 6.3 mph10.1 kmh 30.02 in1016.6 mb 0.00 in0.0 mm 0.00 in0.0 mm 0.00 in0.0 mm
04:50 AM 52.7°F11.5°C 46.0°F7.8°C 78% 1.8 mph ESE2.9 kmh ESE 5.4 mph8.7 kmh 30.02 in1016.6 mb 0.00 in0.0 mm 0.00 in0.0 mm 0.00 in0.0 mm
04:55 AM 52.7°F11.5°C 46.0°F7.8°C 78% 2.2 mph ESE3.5 kmh ESE 5.4 mph8.7 kmh 30.02 in1016.6 mb 0.00 in0.0 mm 0.00 in0.0 mm 0.00 in0.0 mm
05:00 AM 52.5°F11.4°C 45.8°F7.7°C 78% 2.2 mph ESE3.5 kmh ESE 5.8 mph9.3 kmh 30.02 in1016.6 mb 0.00 in0.0 mm 0.00 in0.0 mm 0.00 in0.0 mm
05:05 AM 52.5°F11.4°C 45.8°F7.7°C 78% 2.2 mph ESE3.5 kmh ESE 5.8 mph9.3 kmh 30.02 in1016.6 mb 0.00 in0.0 mm 0.00 in0.0 mm 0.00 in0.0 mm
05:10 AM 52.5°F11.4°C 46.2°F7.9°C 79% 2.2 mph ESE3.5 kmh ESE 4.5 mph7.2 kmh 30.02 in1016.6 mb 0.00 in0.0 mm 0.00 in0.0 mm 0.00 in0.0 mm
05:15 AM 52.3°F11.3°C 46.0°F7.8°C 79% 2.2 mph ESE3.5 kmh ESE 4.5 mph7.2 kmh 30.02 in1016.6 mb 0.00 in0.0 mm 0.00 in0.0 mm 0.00 in0.0 mm
05:20 AM 52.2°F11.2°C 45.9°F7.7°C 79% 1.8 mph E2.9 kmh E 4.5 mph7.2 kmh 30.02 in1016.6 mb 0.00 in0.0 mm 0.00 in0.0 mm 0.00 in0.0 mm
05:25 AM 52.2°F11.2°C 45.9°F7.7°C 79% 1.8 mph E2.9 kmh E 4.9 mph7.9 kmh 30.02 in1016.6 mb 0.00 in0.0 mm 0.00 in0.0 mm 0.00 in0.0 mm
05:30 AM 52.2°F11.2°C 46.2°F7.9°C 80% 1.8 mph E2.9 kmh E 4.9 mph7.9 kmh 30.02 in1016.6 mb 0.00 in0.0 mm 0.00 in0.0 mm 0.00 in0.0 mm
05:35 AM 52.2°F11.2°C 46.2°F7.9°C 80% 2.2 mph E3.5 kmh E 13.4 mph21.6 kmh 30.02 in1016.6 mb 0.00 in0.0 mm 0.00 in0.0 mm 0.00 in0.0 mm
05:40 AM 52.3°F11.3°C 46.0°F7.8°C 79% 2.7 mph ESE4.3 kmh ESE 13.4 mph21.6 kmh 30.01 in1016.3 mb 0.00 in0.0 mm 0.00 in0.0 mm 0.00 in0.0 mm
05:45 AM 52.3°F11.3°C 46.0°F7.8°C 79% 2.7 mph E4.3 kmh E 7.6 mph12.2 kmh 30.01 in1016.3 mb 0.00 in0.0 mm 0.00 in0.0 mm 0.00 in0.0 mm
05:50 AM 52.5°F11.4°C 46.2°F7.9°C 79% 2.2 mph E3.5 kmh E 7.2 mph11.6 kmh 30.01 in1016.3 mb 0.00 in0.0 mm 0.00 in0.0 mm 0.00 in0.0 mm
05:55 AM 52.5°F11.4°C 46.2°F7.9°C 79% 2.7 mph E4.3 kmh E 10.3 mph16.6 kmh 30.01 in1016.3 mb 0.00 in0.0 mm 0.00 in0.0 mm 0.00 in0.0 mm
06:00 AM 52.5°F11.4°C 46.2°F7.9°C 79% 2.7 mph E4.3 kmh E 10.3 mph16.6 kmh 30.01 in1016.3 mb 0.00 in0.0 mm 0.00 in0.0 mm 0.00 in0.0 mm
06:05 AM 52.5°F11.4°C 46.2°F7.9°C 79% 2.2 mph E3.5 kmh E 7.2 mph11.6 kmh 30.01 in1016.3 mb 0.00 in0.0 mm 0.00 in0.0 mm 0.00 in0.0 mm
06:10 AM 52.7°F11.5°C 46.4°F8.0°C 79% 2.2 mph E3.5 kmh E 6.3 mph10.1 kmh 30.01 in1016.3 mb 0.00 in0.0 mm 0.00 in0.0 mm 0.00 in0.0 mm
06:15 AM 53.1°F11.7°C 46.4°F8.0°C 78% 2.2 mph E3.5 kmh E 6.3 mph10.1 kmh 30.01 in1016.3 mb 0.00 in0.0 mm 0.00 in0.0 mm 0.00 in0.0 mm
06:20 AM 53.2°F11.8°C 46.5°F8.1°C 78% 2.2 mph ESE3.5 kmh ESE 4.9 mph7.9 kmh 30.01 in1016.3 mb 0.00 in0.0 mm 0.00 in0.0 mm 0.00 in0.0 mm
06:25 AM 53.4°F11.9°C 46.7°F8.2°C 78% 2.2 mph ESE3.5 kmh ESE 6.3 mph10.1 kmh 30.01 in1016.3 mb 0.00 in0.0 mm 0.00 in0.0 mm 0.00 in0.0 mm
06:30 AM 53.8°F12.1°C 46.8°F8.2°C 77% 2.2 mph ESE3.5 kmh ESE 6.3 mph10.1 kmh 30.01 in1016.3 mb 0.00 in0.0 mm 0.00 in0.0 mm 0.00 in0.0 mm
06:35 AM 54.3°F12.4°C 46.9°F8.3°C 76% 2.7 mph ESE4.3 kmh ESE 6.3 mph10.1 kmh 30.01 in1016.3 mb 0.00 in0.0 mm 0.00 in0.0 mm 0.00 in0.0 mm
06:40 AM 54.7°F12.6°C 46.9°F8.3°C 75% 2.2 mph ESE3.5 kmh ESE 6.3 mph10.1 kmh 30.01 in1016.3 mb 0.00 in0.0 mm 0.00 in0.0 mm 0.00 in0.0 mm
06:45 AM 54.9°F12.7°C 47.1°F8.4°C 75% 2.7 mph ESE4.3 kmh ESE 6.3 mph10.1 kmh 30.00 in1015.9 mb 0.00 in0.0 mm 0.00 in0.0 mm 0.00 in0.0 mm
06:50 AM 55.0°F12.8°C 47.2°F8.4°C 75% 3.1 mph E5.0 kmh E 6.3 mph10.1 kmh 30.01 in1016.3 mb 0.00 in0.0 mm 0.00 in0.0 mm 0.00 in0.0 mm
06:55 AM 55.6°F13.1°C 47.1°F8.4°C 73% 2.2 mph E3.5 kmh E 6.3 mph10.1 kmh 30.01 in1016.3 mb 0.00 in0.0 mm 0.00 in0.0 mm 0.00 in0.0 mm
07:00 AM 55.8°F13.2°C 47.3°F8.5°C 73% 2.2 mph E3.5 kmh E 6.3 mph10.1 kmh 30.01 in1016.3 mb 0.00 in0.0 mm 0.00 in0.0 mm 0.00 in0.0 mm
07:05 AM 55.9°F13.3°C 47.4°F8.6°C 73% 2.7 mph ESE4.3 kmh ESE 12.1 mph19.5 kmh 30.01 in1016.3 mb 0.00 in0.0 mm 0.00 in0.0 mm 0.00 in0.0 mm
07:10 AM 56.5°F13.6°C 47.6°F8.7°C 72% 2.7 mph ESE4.3 kmh ESE 12.1 mph19.5 kmh 30.00 in1015.9 mb 0.00 in0.0 mm 0.00 in0.0 mm 0.00 in0.0 mm
07:15 AM 56.7°F13.7°C 47.4°F8.6°C 71% 3.1 mph ESE5.0 kmh ESE 7.2 mph11.6 kmh 30.01 in1016.3 mb 0.00 in0.0 mm 0.00 in0.0 mm 0.00 in0.0 mm
07:20 AM 56.8°F13.8°C 47.5°F8.6°C 71% 2.7 mph ESE4.3 kmh ESE 6.7 mph10.8 kmh 30.01 in1016.3 mb 0.00 in0.0 mm 0.00 in0.0 mm 0.00 in0.0 mm
07:25 AM 57.0°F13.9°C 47.7°F8.7°C 71% 2.2 mph ESE3.5 kmh ESE 5.8 mph9.3 kmh 30.01 in1016.3 mb 0.00 in0.0 mm 0.00 in0.0 mm 0.00 in0.0 mm
07:30 AM 57.0°F13.9°C 47.7°F8.7°C 71% 2.7 mph E4.3 kmh E 7.2 mph11.6 kmh 30.01 in1016.3 mb 0.00 in0.0 mm 0.00 in0.0 mm 0.00 in0.0 mm
07:35 AM 57.7°F14.3°C 48.0°F8.9°C 70% 2.7 mph E4.3 kmh E 7.2 mph11.6 kmh 30.01 in1016.3 mb 0.00 in0.0 mm 0.00 in0.0 mm 0.00 in0.0 mm
07:40 AM 58.3°F14.6°C 47.8°F8.8°C 68% 2.2 mph ESE3.5 kmh ESE 5.4 mph8.7 kmh 30.01 in1016.3 mb 0.00 in0.0 mm 0.00 in0.0 mm 0.00 in0.0 mm
07:45 AM 58.5°F14.7°C 48.4°F9.1°C 69% 2.7 mph ESE4.3 kmh ESE 6.7 mph10.8 kmh 30.01 in1016.3 mb 0.00 in0.0 mm 0.00 in0.0 mm 0.00 in0.0 mm
07:50 AM 58.6°F14.8°C 48.1°F8.9°C 68% 3.1 mph ESE5.0 kmh ESE 6.7 mph10.8 kmh 30.01 in1016.3 mb 0.00 in0.0 mm 0.00 in0.0 mm 0.00 in0.0 mm
07:55 AM 58.3°F14.6°C 48.2°F9.0°C 69% 2.7 mph SE4.3 kmh SE 6.3 mph10.1 kmh 30.01 in1016.3 mb 0.00 in0.0 mm 0.00 in0.0 mm 0.00 in0.0 mm
08:00 AM 58.6°F14.8°C 48.1°F8.9°C 68% 3.1 mph ESE5.0 kmh ESE 7.6 mph12.2 kmh 30.01 in1016.3 mb 0.00 in0.0 mm 0.00 in0.0 mm 0.00 in0.0 mm
08:05 AM 59.2°F15.1°C 48.2°F9.0°C 67% 3.1 mph E5.0 kmh E 7.6 mph12.2 kmh 30.01 in1016.3 mb 0.00 in0.0 mm 0.00 in0.0 mm 0.00 in0.0 mm
08:10 AM 58.8°F14.9°C 47.9°F8.8°C 67% 3.1 mph ESE5.0 kmh ESE 8.5 mph13.7 kmh 30.01 in1016.3 mb 0.00 in0.0 mm 0.00 in0.0 mm 0.00 in0.0 mm
08:15 AM 59.5°F15.3°C 48.5°F9.2°C 67% 3.6 mph ESE5.8 kmh ESE 8.5 mph13.7 kmh 30.00 in1015.9 mb 0.00 in0.0 mm 0.00 in0.0 mm 0.00 in0.0 mm
08:20 AM 59.5°F15.3°C 48.5°F9.2°C 67% 3.1 mph ESE5.0 kmh ESE 8.1 mph13.0 kmh 30.00 in1015.9 mb 0.00 in0.0 mm 0.00 in0.0 mm 0.00 in0.0 mm
08:25 AM 59.5°F15.3°C 48.5°F9.2°C 67% 3.1 mph E5.0 kmh E 7.6 mph12.2 kmh 30.00 in1015.9 mb 0.00 in0.0 mm 0.00 in0.0 mm 0.00 in0.0 mm
08:30 AM 59.9°F15.5°C 48.5°F9.2°C 66% 3.1 mph E5.0 kmh E 6.3 mph10.1 kmh 30.00 in1015.9 mb 0.00 in0.0 mm 0.00 in0.0 mm 0.00 in0.0 mm
08:35 AM 61.3°F16.3°C 49.4°F9.7°C 65% 3.1 mph E5.0 kmh E 8.5 mph13.7 kmh 30.00 in1015.9 mb 0.00 in0.0 mm 0.00 in0.0 mm 0.00 in0.0 mm
08:40 AM 61.2°F16.2°C 49.3°F9.6°C 65% 3.6 mph E5.8 kmh E 8.5 mph13.7 kmh 30.00 in1015.9 mb 0.00 in0.0 mm 0.00 in0.0 mm 0.00 in0.0 mm
08:45 AM 61.5°F16.4°C 48.8°F9.3°C 63% 3.6 mph E5.8 kmh E 8.5 mph13.7 kmh 30.00 in1015.9 mb 0.00 in0.0 mm 0.00 in0.0 mm 0.00 in0.0 mm
08:50 AM 62.8°F17.1°C 50.0°F10.0°C 63% 3.1 mph E5.0 kmh E 9.0 mph14.5 kmh 30.00 in1015.9 mb 0.00 in0.0 mm 0.00 in0.0 mm 0.00 in0.0 mm
08:55 AM 63.1°F17.3°C 49.9°F9.9°C 62% 3.1 mph ENE5.0 kmh ENE 9.4 mph15.1 kmh 30.00 in1015.9 mb 0.00 in0.0 mm 0.00 in0.0 mm 0.00 in0.0 mm
09:00 AM 63.1°F17.3°C 49.0°F9.4°C 60% 4.9 mph ENE7.9 kmh ENE 11.6 mph18.7 kmh 30.00 in1015.9 mb 0.00 in0.0 mm 0.00 in0.0 mm 0.00 in0.0 mm
09:05 AM 63.3°F17.4°C 49.2°F9.6°C 60% 5.8 mph NE9.3 kmh NE 11.6 mph18.7 kmh 30.00 in1015.9 mb 0.00 in0.0 mm 0.00 in0.0 mm 0.00 in0.0 mm
09:10 AM 63.5°F17.5°C 48.9°F9.4°C 59% 4.5 mph ENE7.2 kmh ENE 11.6 mph18.7 kmh 30.00 in1015.9 mb 0.00 in0.0 mm 0.00 in0.0 mm 0.00 in0.0 mm
09:15 AM 64.4°F18.0°C 49.3°F9.6°C 58% 3.6 mph E5.8 kmh E 11.2 mph18.0 kmh 30.00 in1015.9 mb 0.00 in0.0 mm 0.00 in0.0 mm 0.00 in0.0 mm
09:20 AM 65.1°F18.4°C 50.0°F10.0°C 58% 3.1 mph E5.0 kmh E 11.6 mph18.7 kmh 30.00 in1015.9 mb 0.00 in0.0 mm 0.00 in0.0 mm 0.00 in0.0 mm
09:25 AM 64.9°F18.3°C 48.8°F9.3°C 56% 3.6 mph E5.8 kmh E 11.6 mph18.7 kmh 30.00 in1015.9 mb 0.00 in0.0 mm 0.00 in0.0 mm 0.00 in0.0 mm
09:30 AM 64.6°F18.1°C 48.5°F9.2°C 56% 3.6 mph E5.8 kmh E 11.6 mph18.7 kmh 29.99 in1015.6 mb 0.00 in0.0 mm 0.00 in0.0 mm 0.00 in0.0 mm
09:35 AM 66.2°F19.0°C 49.6°F9.8°C 55% 2.7 mph ESE4.3 kmh ESE 11.6 mph18.7 kmh 30.00 in1015.9 mb 0.00 in0.0 mm 0.00 in0.0 mm 0.00 in0.0 mm
09:40 AM 65.7°F18.7°C 49.6°F9.8°C 56% 2.7 mph ESE4.3 kmh ESE 8.1 mph13.0 kmh 29.99 in1015.6 mb 0.00 in0.0 mm 0.00 in0.0 mm 0.00 in0.0 mm
09:45 AM 66.2°F19.0°C 49.1°F9.5°C 54% 3.1 mph E5.0 kmh E 9.0 mph14.5 kmh 29.99 in1015.6 mb 0.00 in0.0 mm 0.00 in0.0 mm 0.00 in0.0 mm
09:50 AM 66.2°F19.0°C 49.1°F9.5°C 54% 3.6 mph E5.8 kmh E 9.9 mph15.9 kmh 29.99 in1015.6 mb 0.00 in0.0 mm 0.00 in0.0 mm 0.00 in0.0 mm
09:55 AM 66.9°F19.4°C 50.2°F10.1°C 55% 3.6 mph E5.8 kmh E 9.9 mph15.9 kmh 29.99 in1015.6 mb 0.00 in0.0 mm 0.00 in0.0 mm 0.00 in0.0 mm
10:00 AM 67.8°F19.9°C 50.0°F10.0°C 53% 3.6 mph ENE5.8 kmh ENE 9.9 mph15.9 kmh 29.99 in1015.6 mb 0.00 in0.0 mm 0.00 in0.0 mm 0.00 in0.0 mm
10:05 AM 68.4°F20.2°C 50.1°F10.1°C 52% 4.9 mph NE7.9 kmh NE 9.9 mph15.9 kmh 29.99 in1015.6 mb 0.00 in0.0 mm 0.00 in0.0 mm 0.00 in0.0 mm
10:10 AM 68.9°F20.5°C 50.5°F10.3°C 52% 4.9 mph NE7.9 kmh NE 9.9 mph15.9 kmh 29.99 in1015.6 mb 0.00 in0.0 mm 0.00 in0.0 mm 0.00 in0.0 mm
10:15 AM 68.9°F20.5°C 50.0°F10.0°C 51% 5.4 mph NE8.7 kmh NE 11.2 mph18.0 kmh 29.99 in1015.6 mb 0.00 in0.0 mm 0.00 in0.0 mm 0.00 in0.0 mm
10:20 AM 69.3°F20.7°C 49.9°F9.9°C 50% 4.5 mph NE7.2 kmh NE 11.2 mph18.0 kmh 29.98 in1015.2 mb 0.00 in0.0 mm 0.00 in0.0 mm 0.00 in0.0 mm
10:25 AM 70.5°F21.4°C 51.0°F10.6°C 50% 3.1 mph NE5.0 kmh NE 8.1 mph13.0 kmh 29.98 in1015.2 mb 0.00 in0.0 mm 0.00 in0.0 mm 0.00 in0.0 mm
10:30 AM 70.5°F21.4°C 49.9°F9.9°C 48% 2.7 mph NE4.3 kmh NE 8.1 mph13.0 kmh 29.98 in1015.2 mb 0.00 in0.0 mm 0.00 in0.0 mm 0.00 in0.0 mm
10:35 AM 70.2°F21.2°C 50.7°F10.4°C 50% 2.7 mph E4.3 kmh E 7.2 mph11.6 kmh 29.98 in1015.2 mb 0.00 in0.0 mm 0.00 in0.0 mm 0.00 in0.0 mm
10:40 AM 69.8°F21.0°C 50.3°F10.2°C 50% 3.1 mph E5.0 kmh E 7.2 mph11.6 kmh 29.98 in1015.2 mb 0.00 in0.0 mm 0.00 in0.0 mm 0.00 in0.0 mm
10:45 AM 70.2°F21.2°C 50.7°F10.4°C 50% 3.1 mph E5.0 kmh E 8.5 mph13.7 kmh 29.98 in1015.2 mb 0.00 in0.0 mm 0.00 in0.0 mm 0.00 in0.0 mm
10:50 AM 72.1°F22.3°C 51.9°F11.1°C 49% 2.2 mph ESE3.5 kmh ESE 8.5 mph13.7 kmh 29.98 in1015.2 mb 0.00 in0.0 mm 0.00 in0.0 mm 0.00 in0.0 mm
10:55 AM 72.1°F22.3°C 51.9°F11.1°C 49% 2.2 mph E3.5 kmh E 6.7 mph10.8 kmh 29.98 in1015.2 mb 0.00 in0.0 mm 0.00 in0.0 mm 0.00 in0.0 mm
11:00 AM 71.1°F21.7°C 51.0°F10.6°C 49% 3.1 mph E5.0 kmh E 8.1 mph13.0 kmh 29.97 in1014.9 mb 0.00 in0.0 mm 0.00 in0.0 mm 0.00 in0.0 mm
11:05 AM 73.2°F22.9°C 52.3°F11.3°C 48% 3.1 mph NE5.0 kmh NE 8.5 mph13.7 kmh 29.97 in1014.9 mb 0.00 in0.0 mm 0.00 in0.0 mm 0.00 in0.0 mm
11:10 AM 73.6°F23.1°C 52.7°F11.5°C 48% 3.6 mph NE5.8 kmh NE 8.5 mph13.7 kmh 29.97 in1014.9 mb 0.00 in0.0 mm 0.00 in0.0 mm 0.00 in0.0 mm
11:15 AM 75.6°F24.2°C 52.8°F11.6°C 45% 3.1 mph NNE5.0 kmh NNE 8.5 mph13.7 kmh 29.97 in1014.9 mb 0.00 in0.0 mm 0.00 in0.0 mm 0.00 in0.0 mm
11:20 AM 74.5°F23.6°C 51.8°F11.0°C 45% 2.7 mph NNE4.3 kmh NNE 9.9 mph15.9 kmh 29.96 in1014.6 mb 0.00 in0.0 mm 0.00 in0.0 mm 0.00 in0.0 mm
11:25 AM 73.6°F23.1°C 52.1°F11.2°C 47% 2.7 mph NE4.3 kmh NE 9.9 mph15.9 kmh 29.96 in1014.6 mb 0.00 in0.0 mm 0.00 in0.0 mm 0.00 in0.0 mm
11:30 AM 74.8°F23.8°C 53.2°F11.8°C 47% 1.8 mph E2.9 kmh E 5.4 mph8.7 kmh 29.96 in1014.6 mb 0.00 in0.0 mm 0.00 in0.0 mm 0.00 in0.0 mm
11:35 AM 76.8°F24.9°C 53.8°F12.1°C 45% 2.2 mph NNW3.5 kmh NNW 7.2 mph11.6 kmh 29.95 in1014.2 mb 0.00 in0.0 mm 0.00 in0.0 mm 0.00 in0.0 mm
11:40 AM 76.5°F24.7°C 54.2°F12.3°C 46% 2.7 mph NNW4.3 kmh NNW 7.2 mph11.6 kmh 29.95 in1014.2 mb 0.00 in0.0 mm 0.00 in0.0 mm 0.00 in0.0 mm
11:45 AM 75.6°F24.2°C 52.8°F11.6°C 45% 3.1 mph NE5.0 kmh NE 6.3 mph10.1 kmh 29.95 in1014.2 mb 0.00 in0.0 mm 0.00 in0.0 mm 0.00 in0.0 mm
11:50 AM 76.5°F24.7°C 55.3°F12.9°C 48% 2.7 mph N4.3 kmh N 6.3 mph10.1 kmh 29.95 in1014.2 mb 0.00 in0.0 mm 0.00 in0.0 mm 0.00 in0.0 mm
11:55 AM 77.0°F25.0°C 54.0°F12.2°C 45% 3.1 mph NNW5.0 kmh NNW 14.8 mph23.8 kmh 29.95 in1014.2 mb 0.00 in0.0 mm 0.00 in0.0 mm 0.00 in0.0 mm
12:00 PM 77.7°F25.4°C 54.0°F12.2°C 44% 4.5 mph NNW7.2 kmh NNW 14.8 mph23.8 kmh 29.94 in1013.9 mb 0.00 in0.0 mm 0.00 in0.0 mm 0.00 in0.0 mm
12:05 PM 79.3°F26.3°C 56.1°F13.4°C 45% 4.0 mph NW6.4 kmh NW 8.5 mph13.7 kmh 29.94 in1013.9 mb 0.00 in0.0 mm 0.00 in0.0 mm 0.00 in0.0 mm
12:10 PM 78.4°F25.8°C 54.7°F12.6°C 44% 3.6 mph NW5.8 kmh NW 8.5 mph13.7 kmh 29.94 in1013.9 mb 0.00 in0.0 mm 0.00 in0.0 mm 0.00 in0.0 mm
12:15 PM 76.3°F24.6°C 52.8°F11.6°C 44% 3.1 mph WSW5.0 kmh WSW 10.3 mph16.6 kmh 29.94 in1013.9 mb 0.00 in0.0 mm 0.00 in0.0 mm 0.00 in0.0 mm
12:20 PM 78.4°F25.8°C 54.0°F12.2°C 43% 2.7 mph WSW4.3 kmh WSW 10.3 mph16.6 kmh 29.94 in1013.9 mb 0.00 in0.0 mm 0.00 in0.0 mm 0.00 in0.0 mm
12:25 PM 79.3°F26.3°C 55.5°F13.1°C 44% 3.6 mph W5.8 kmh W 9.0 mph14.5 kmh 29.94 in1013.9 mb 0.00 in0.0 mm 0.00 in0.0 mm 0.00 in0.0 mm
12:30 PM 79.0°F26.1°C 53.9°F12.2°C 42% 4.5 mph W7.2 kmh W 17.5 mph28.2 kmh 29.94 in1013.9 mb 0.00 in0.0 mm 0.00 in0.0 mm 0.00 in0.0 mm
12:35 PM 78.1°F25.6°C 53.8°F12.1°C 43% 4.0 mph W6.4 kmh W 17.5 mph28.2 kmh 29.94 in1013.9 mb 0.00 in0.0 mm 0.00 in0.0 mm 0.00 in0.0 mm
12:40 PM 78.3°F25.7°C 54.0°F12.2°C 43% 4.5 mph WSW7.2 kmh WSW 11.2 mph18.0 kmh 29.94 in1013.9 mb 0.00 in0.0 mm 0.00 in0.0 mm 0.00 in0.0 mm
12:45 PM 78.4°F25.8°C 54.0°F12.2°C 43% 4.9 mph WSW7.9 kmh WSW 10.3 mph16.6 kmh 29.94 in1013.9 mb 0.00 in0.0 mm 0.00 in0.0 mm 0.00 in0.0 mm
12:50 PM 78.1°F25.6°C 55.0°F12.8°C 45% 4.0 mph WSW6.4 kmh WSW 15.2 mph24.5 kmh 29.94 in1013.9 mb 0.00 in0.0 mm 0.00 in0.0 mm 0.00 in0.0 mm
12:55 PM 77.4°F25.2°C 53.1°F11.7°C 43% 5.4 mph WSW8.7 kmh WSW 15.2 mph24.5 kmh 29.94 in1013.9 mb 0.00 in0.0 mm 0.00 in0.0 mm 0.00 in0.0 mm
01:00 PM 78.1°F25.6°C 54.4°F12.4°C 44% 5.8 mph WSW9.3 kmh WSW 13.9 mph22.4 kmh 29.94 in1013.9 mb 0.00 in0.0 mm 0.00 in0.0 mm 0.00 in0.0 mm
01:05 PM 78.6°F25.9°C 54.2°F12.3°C 43% 4.5 mph W7.2 kmh W 13.9 mph22.4 kmh 29.94 in1013.9 mb 0.00 in0.0 mm 0.00 in0.0 mm 0.00 in0.0 mm
01:10 PM 81.3°F27.4°C 56.7°F13.7°C 43% 4.0 mph WSW6.4 kmh WSW 9.4 mph15.1 kmh 29.93 in1013.5 mb 0.00 in0.0 mm 0.00 in0.0 mm 0.00 in0.0 mm
01:15 PM 80.6°F27.0°C 55.4°F13.0°C 42% 5.4 mph W8.7 kmh W 14.8 mph23.8 kmh 29.94 in1013.9 mb 0.00 in0.0 mm 0.00 in0.0 mm 0.00 in0.0 mm
01:20 PM 79.3°F26.3°C 55.5°F13.1°C 44% 5.8 mph W9.3 kmh W 14.8 mph23.8 kmh 29.93 in1013.5 mb 0.00 in0.0 mm 0.00 in0.0 mm 0.00 in0.0 mm
01:25 PM 78.4°F25.8°C 55.9°F13.3°C 46% 5.4 mph WSW8.7 kmh WSW 13.0 mph20.9 kmh 29.94 in1013.9 mb 0.00 in0.0 mm 0.00 in0.0 mm 0.00 in0.0 mm
01:30 PM 78.4°F25.8°C 55.9°F13.3°C 46% 5.8 mph WSW9.3 kmh WSW 13.4 mph21.6 kmh 29.94 in1013.9 mb 0.00 in0.0 mm 0.00 in0.0 mm 0.00 in0.0 mm
01:35 PM 79.3°F26.3°C 56.1°F13.4°C 45% 5.4 mph WSW8.7 kmh WSW 13.4 mph21.6 kmh 29.93 in1013.5 mb 0.00 in0.0 mm 0.00 in0.0 mm 0.00 in0.0 mm
01:40 PM 79.2°F26.2°C 56.0°F13.3°C 45% 5.4 mph W8.7 kmh W 13.9 mph22.4 kmh 29.93 in1013.5 mb 0.00 in0.0 mm 0.00 in0.0 mm 0.00 in0.0 mm
01:45 PM 78.4°F25.8°C 55.3°F12.9°C 45% 6.3 mph W10.1 kmh W 20.6 mph33.2 kmh 29.93 in1013.5 mb 0.00 in0.0 mm 0.00 in0.0 mm 0.00 in0.0 mm
01:50 PM 78.8°F26.0°C 56.3°F13.5°C 46% 6.3 mph WSW10.1 kmh WSW 20.6 mph33.2 kmh 29.93 in1013.5 mb 0.00 in0.0 mm 0.00 in0.0 mm 0.00 in0.0 mm
01:55 PM 77.9°F25.5°C 56.6°F13.7°C 48% 6.3 mph WSW10.1 kmh WSW 17.5 mph28.2 kmh 29.93 in1013.5 mb 0.00 in0.0 mm 0.00 in0.0 mm 0.00 in0.0 mm
02:05 PM 77.9°F25.5°C 56.0°F13.3°C 47% 7.2 mph WSW11.6 kmh WSW 19.7 mph31.7 kmh 29.93 in1013.5 mb 0.00 in0.0 mm 0.00 in0.0 mm 0.00 in0.0 mm
02:10 PM 78.1°F25.6°C 56.2°F13.4°C 47% 6.7 mph WSW10.8 kmh WSW 14.8 mph23.8 kmh 29.93 in1013.5 mb 0.00 in0.0 mm 0.00 in0.0 mm 0.00 in0.0 mm
02:15 PM 78.3°F25.7°C 56.4°F13.6°C 47% 6.7 mph WSW10.8 kmh WSW 13.4 mph21.6 kmh 29.93 in1013.5 mb 0.00 in0.0 mm 0.00 in0.0 mm 0.00 in0.0 mm
02:20 PM 77.9°F25.5°C 56.6°F13.7°C 48% 7.2 mph WSW11.6 kmh WSW 24.2 mph38.9 kmh 29.93 in1013.5 mb 0.00 in0.0 mm 0.00 in0.0 mm 0.00 in0.0 mm
02:25 PM 78.1°F25.6°C 56.8°F13.8°C 48% 7.6 mph WSW12.2 kmh WSW 24.2 mph38.9 kmh 29.93 in1013.5 mb 0.00 in0.0 mm 0.00 in0.0 mm 0.00 in0.0 mm
02:30 PM 77.7°F25.4°C 55.9°F13.3°C 47% 7.2 mph WSW11.6 kmh WSW 17.5 mph28.2 kmh 29.92 in1013.2 mb 0.00 in0.0 mm 0.00 in0.0 mm 0.00 in0.0 mm
02:35 PM 78.1°F25.6°C 56.2°F13.4°C 47% 7.2 mph WSW11.6 kmh WSW 15.2 mph24.5 kmh 29.92 in1013.2 mb 0.00 in0.0 mm 0.00 in0.0 mm 0.00 in0.0 mm
02:40 PM 77.5°F25.3°C 56.3°F13.5°C 48% 7.2 mph WSW11.6 kmh WSW 15.2 mph24.5 kmh 29.92 in1013.2 mb 0.00 in0.0 mm 0.00 in0.0 mm 0.00 in0.0 mm
02:45 PM 77.5°F25.3°C 55.7°F13.2°C 47% 7.2 mph WSW11.6 kmh WSW 15.7 mph25.3 kmh 29.92 in1013.2 mb 0.00 in0.0 mm 0.00 in0.0 mm 0.00 in0.0 mm
02:50 PM 78.1°F25.6°C 56.2°F13.4°C 47% 6.7 mph WSW10.8 kmh WSW 15.7 mph25.3 kmh 29.92 in1013.2 mb 0.00 in0.0 mm 0.00 in0.0 mm 0.00 in0.0 mm
02:55 PM 77.7°F25.4°C 55.9°F13.3°C 47% 6.3 mph WSW10.1 kmh WSW 13.0 mph20.9 kmh 29.92 in1013.2 mb 0.00 in0.0 mm 0.00 in0.0 mm 0.00 in0.0 mm
03:00 PM 77.4°F25.2°C 55.0°F12.8°C 46% 6.3 mph WSW10.1 kmh WSW 15.7 mph25.3 kmh 29.92 in1013.2 mb 0.00 in0.0 mm 0.00 in0.0 mm 0.00 in0.0 mm
03:05 PM 77.7°F25.4°C 55.3°F12.9°C 46% 6.3 mph WSW10.1 kmh WSW 15.7 mph25.3 kmh 29.92 in1013.2 mb 0.00 in0.0 mm 0.00 in0.0 mm 0.00 in0.0 mm
03:10 PM 77.9°F25.5°C 54.8°F12.7°C 45% 6.3 mph WSW10.1 kmh WSW 12.5 mph20.1 kmh 29.92 in1013.2 mb 0.00 in0.0 mm 0.00 in0.0 mm 0.00 in0.0 mm
03:15 PM 77.0°F25.0°C 54.6°F12.6°C 46% 6.7 mph WSW10.8 kmh WSW 16.1 mph25.9 kmh 29.92 in1013.2 mb 0.00 in0.0 mm 0.00 in0.0 mm 0.00 in0.0 mm
03:20 PM 75.9°F24.4°C 54.2°F12.3°C 47% 7.6 mph WSW12.2 kmh WSW 23.7 mph38.1 kmh 29.92 in1013.2 mb 0.00 in0.0 mm 0.00 in0.0 mm 0.00 in0.0 mm
03:25 PM 75.7°F24.3°C 54.6°F12.6°C 48% 7.2 mph WSW11.6 kmh WSW 23.7 mph38.1 kmh 29.92 in1013.2 mb 0.00 in0.0 mm 0.00 in0.0 mm 0.00 in0.0 mm
03:30 PM 76.3°F24.6°C 54.6°F12.6°C 47% 7.2 mph WSW11.6 kmh WSW 14.8 mph23.8 kmh 29.92 in1013.2 mb 0.00 in0.0 mm 0.00 in0.0 mm 0.00 in0.0 mm
03:35 PM 74.5°F23.6°C 54.1°F12.3°C 49% 7.2 mph WSW11.6 kmh WSW 14.3 mph23.0 kmh 29.91 in1012.9 mb 0.00 in0.0 mm 0.00 in0.0 mm 0.00 in0.0 mm
03:40 PM 73.4°F23.0°C 54.2°F12.3°C 51% 7.6 mph WSW12.2 kmh WSW 14.3 mph23.0 kmh 29.91 in1012.9 mb 0.00 in0.0 mm 0.00 in0.0 mm 0.00 in0.0 mm
03:45 PM 74.3°F23.5°C 55.0°F12.8°C 51% 7.2 mph WSW11.6 kmh WSW 18.8 mph30.3 kmh 29.91 in1012.9 mb 0.00 in0.0 mm 0.00 in0.0 mm 0.00 in0.0 mm
03:50 PM 75.0°F23.9°C 54.0°F12.2°C 48% 6.3 mph WSW10.1 kmh WSW 18.8 mph30.3 kmh 29.91 in1012.9 mb 0.00 in0.0 mm 0.00 in0.0 mm 0.00 in0.0 mm
03:55 PM 74.8°F23.8°C 53.8°F12.1°C 48% 6.3 mph WSW10.1 kmh WSW 16.6 mph26.7 kmh 29.92 in1013.2 mb 0.00 in0.0 mm 0.00 in0.0 mm 0.00 in0.0 mm
04:00 PM 75.2°F24.0°C 54.2°F12.3°C 48% 6.3 mph WSW10.1 kmh WSW 13.0 mph20.9 kmh 29.92 in1013.2 mb 0.00 in0.0 mm 0.00 in0.0 mm 0.00 in0.0 mm
04:05 PM 75.4°F24.1°C 53.8°F12.1°C 47% 6.3 mph SW10.1 kmh SW 12.5 mph20.1 kmh 29.91 in1012.9 mb 0.00 in0.0 mm 0.00 in0.0 mm 0.00 in0.0 mm
04:10 PM 75.2°F24.0°C 53.6°F12.0°C 47% 6.7 mph WSW10.8 kmh WSW 14.3 mph23.0 kmh 29.91 in1012.9 mb 0.00 in0.0 mm 0.00 in0.0 mm 0.00 in0.0 mm
04:15 PM 74.1°F23.4°C 54.3°F12.4°C 50% 6.3 mph WSW10.1 kmh WSW 15.7 mph25.3 kmh 29.91 in1012.9 mb 0.00 in0.0 mm 0.00 in0.0 mm 0.00 in0.0 mm
04:20 PM 74.7°F23.7°C 54.3°F12.4°C 49% 6.7 mph WSW10.8 kmh WSW 17.0 mph27.4 kmh 29.91 in1012.9 mb 0.00 in0.0 mm 0.00 in0.0 mm 0.00 in0.0 mm
04:25 PM 74.3°F23.5°C 53.3°F11.8°C 48% 6.7 mph WSW10.8 kmh WSW 17.0 mph27.4 kmh 29.91 in1012.9 mb 0.00 in0.0 mm 0.00 in0.0 mm 0.00 in0.0 mm
04:30 PM 73.9°F23.3°C 53.5°F11.9°C 49% 6.3 mph WSW10.1 kmh WSW 14.8 mph23.8 kmh 29.91 in1012.9 mb 0.00 in0.0 mm 0.00 in0.0 mm 0.00 in0.0 mm
04:35 PM 74.7°F23.7°C 53.7°F12.1°C 48% 6.7 mph WSW10.8 kmh WSW 14.8 mph23.8 kmh 29.91 in1012.9 mb 0.00 in0.0 mm 0.00 in0.0 mm 0.00 in0.0 mm
04:40 PM 74.1°F23.4°C 54.3°F12.4°C 50% 6.7 mph WSW10.8 kmh WSW 13.4 mph21.6 kmh 29.91 in1012.9 mb 0.00 in0.0 mm 0.00 in0.0 mm 0.00 in0.0 mm
04:45 PM 74.1°F23.4°C 53.7°F12.1°C 49% 5.8 mph WSW9.3 kmh WSW 13.9 mph22.4 kmh 29.91 in1012.9 mb 0.00 in0.0 mm 0.00 in0.0 mm 0.00 in0.0 mm
04:50 PM 73.9°F23.3°C 53.5°F11.9°C 49% 5.8 mph WSW9.3 kmh WSW 13.9 mph22.4 kmh 29.92 in1013.2 mb 0.00 in0.0 mm 0.00 in0.0 mm 0.00 in0.0 mm
04:55 PM 73.0°F22.8°C 53.3°F11.8°C 50% 6.3 mph WSW10.1 kmh WSW 14.8 mph23.8 kmh 29.92 in1013.2 mb 0.00 in0.0 mm 0.00 in0.0 mm 0.00 in0.0 mm
05:00 PM 73.0°F22.8°C 53.3°F11.8°C 50% 6.7 mph WSW10.8 kmh WSW 14.8 mph23.8 kmh 29.92 in1013.2 mb 0.00 in0.0 mm 0.00 in0.0 mm 0.00 in0.0 mm
05:05 PM 73.2°F22.9°C 53.4°F11.9°C 50% 6.7 mph WSW10.8 kmh WSW 14.3 mph23.0 kmh 29.92 in1013.2 mb 0.00 in0.0 mm 0.00 in0.0 mm 0.00 in0.0 mm
05:10 PM 73.2°F22.9°C 53.4°F11.9°C 50% 5.8 mph WSW9.3 kmh WSW 14.3 mph23.0 kmh 29.92 in1013.2 mb 0.00 in0.0 mm 0.00 in0.0 mm 0.00 in0.0 mm
05:15 PM 73.2°F22.9°C 53.4°F11.9°C 50% 5.4 mph WSW8.7 kmh WSW 12.1 mph19.5 kmh 29.92 in1013.2 mb 0.00 in0.0 mm 0.00 in0.0 mm 0.00 in0.0 mm
05:30 PM 71.1°F21.7°C 52.6°F11.4°C 52% 6.3 mph WSW10.1 kmh WSW 11.2 mph18.0 kmh 29.92 in1013.2 mb 0.00 in0.0 mm 0.00 in0.0 mm 0.00 in0.0 mm
05:35 PM 70.9°F21.6°C 52.4°F11.3°C 52% 6.3 mph WSW10.1 kmh WSW 13.0 mph20.9 kmh 29.92 in1013.2 mb 0.00 in0.0 mm 0.00 in0.0 mm 0.00 in0.0 mm
05:40 PM 71.1°F21.7°C 52.6°F11.4°C 52% 5.8 mph WSW9.3 kmh WSW 13.0 mph20.9 kmh 29.93 in1013.5 mb 0.00 in0.0 mm 0.00 in0.0 mm 0.00 in0.0 mm
05:45 PM 71.1°F21.7°C 52.6°F11.4°C 52% 5.8 mph WSW9.3 kmh WSW 12.5 mph20.1 kmh 29.92 in1013.2 mb 0.00 in0.0 mm 0.00 in0.0 mm 0.00 in0.0 mm
05:50 PM 71.2°F21.8°C 52.7°F11.5°C 52% 4.9 mph WSW7.9 kmh WSW 10.8 mph17.4 kmh 29.92 in1013.2 mb 0.00 in0.0 mm 0.00 in0.0 mm 0.00 in0.0 mm
05:55 PM 70.5°F21.4°C 51.5°F10.8°C 51% 4.5 mph WSW7.2 kmh WSW 16.1 mph25.9 kmh 29.93 in1013.5 mb 0.00 in0.0 mm 0.00 in0.0 mm 0.00 in0.0 mm
06:00 PM 70.2°F21.2°C 52.3°F11.3°C 53% 5.4 mph WSW8.7 kmh WSW 16.1 mph25.9 kmh 29.93 in1013.5 mb 0.00 in0.0 mm 0.00 in0.0 mm 0.00 in0.0 mm
06:05 PM 68.9°F20.5°C 52.1°F11.2°C 55% 5.4 mph W8.7 kmh W 12.1 mph19.5 kmh 29.93 in1013.5 mb 0.00 in0.0 mm 0.00 in0.0 mm 0.00 in0.0 mm
06:10 PM 68.4°F20.2°C 52.1°F11.2°C 56% 5.4 mph WSW8.7 kmh WSW 17.5 mph28.2 kmh 29.93 in1013.5 mb 0.00 in0.0 mm 0.00 in0.0 mm 0.00 in0.0 mm
06:15 PM 68.5°F20.3°C 52.2°F11.2°C 56% 4.9 mph WSW7.9 kmh WSW 17.5 mph28.2 kmh 29.93 in1013.5 mb 0.00 in0.0 mm 0.00 in0.0 mm 0.00 in0.0 mm
06:20 PM 68.0°F20.0°C 52.2°F11.2°C 57% 4.5 mph WSW7.2 kmh WSW 10.8 mph17.4 kmh 29.93 in1013.5 mb 0.00 in0.0 mm 0.00 in0.0 mm 0.00 in0.0 mm
06:25 PM 68.0°F20.0°C 52.2°F11.2°C 57% 4.9 mph WSW7.9 kmh WSW 10.8 mph17.4 kmh 29.93 in1013.5 mb 0.00 in0.0 mm 0.00 in0.0 mm 0.00 in0.0 mm
06:30 PM 68.0°F20.0°C 52.2°F11.2°C 57% 4.9 mph WSW7.9 kmh WSW 9.4 mph15.1 kmh 29.93 in1013.5 mb 0.00 in0.0 mm 0.00 in0.0 mm 0.00 in0.0 mm
06:35 PM 67.6°F19.8°C 52.3°F11.3°C 58% 4.0 mph WSW6.4 kmh WSW 8.5 mph13.7 kmh 29.93 in1013.5 mb 0.00 in0.0 mm 0.00 in0.0 mm 0.00 in0.0 mm
06:40 PM 67.3°F19.6°C 52.0°F11.1°C 58% 4.0 mph WSW6.4 kmh WSW 8.1 mph13.0 kmh 29.93 in1013.5 mb 0.00 in0.0 mm 0.00 in0.0 mm 0.00 in0.0 mm
06:45 PM 67.1°F19.5°C 51.8°F11.0°C 58% 3.1 mph WSW5.0 kmh WSW 7.6 mph12.2 kmh 29.93 in1013.5 mb 0.00 in0.0 mm 0.00 in0.0 mm 0.00 in0.0 mm
06:50 PM 66.7°F19.3°C 51.5°F10.8°C 58% 3.1 mph W5.0 kmh W 7.6 mph12.2 kmh 29.94 in1013.9 mb 0.00 in0.0 mm 0.00 in0.0 mm 0.00 in0.0 mm
06:55 PM 66.4°F19.1°C 51.6°F10.9°C 59% 3.1 mph W5.0 kmh W 7.6 mph12.2 kmh 29.94 in1013.9 mb 0.00 in0.0 mm 0.00 in0.0 mm 0.00 in0.0 mm
07:00 PM 65.8°F18.8°C 51.1°F10.6°C 59% 2.2 mph W3.5 kmh W 6.3 mph10.1 kmh 29.93 in1013.5 mb 0.00 in0.0 mm 0.00 in0.0 mm 0.00 in0.0 mm
07:05 PM 65.7°F18.7°C 51.4°F10.8°C 60% 1.8 mph W2.9 kmh W 6.3 mph10.1 kmh 29.94 in1013.9 mb 0.00 in0.0 mm 0.00 in0.0 mm 0.00 in0.0 mm
07:10 PM 64.9°F18.3°C 51.1°F10.6°C 61% 2.2 mph W3.5 kmh W 6.3 mph10.1 kmh 29.94 in1013.9 mb 0.00 in0.0 mm 0.00 in0.0 mm 0.00 in0.0 mm
07:15 PM 64.0°F17.8°C 51.6°F10.9°C 64% 1.8 mph W2.9 kmh W 6.3 mph10.1 kmh 29.94 in1013.9 mb 0.00 in0.0 mm 0.00 in0.0 mm 0.00 in0.0 mm
07:20 PM 63.3°F17.4°C 51.3°F10.7°C 65% 1.8 mph W2.9 kmh W 6.3 mph10.1 kmh 29.94 in1013.9 mb 0.00 in0.0 mm 0.00 in0.0 mm 0.00 in0.0 mm
07:25 PM 63.1°F17.3°C 51.6°F10.9°C 66% 1.8 mph W2.9 kmh W 4.0 mph6.4 kmh 29.94 in1013.9 mb 0.00 in0.0 mm 0.00 in0.0 mm 0.00 in0.0 mm
07:30 PM 62.4°F16.9°C 51.7°F10.9°C 68% 1.8 mph W2.9 kmh W 4.9 mph7.9 kmh 29.94 in1013.9 mb 0.00 in0.0 mm 0.00 in0.0 mm 0.00 in0.0 mm
07:35 PM 61.7°F16.5°C 51.8°F11.0°C 70% 1.8 mph WSW2.9 kmh WSW 4.9 mph7.9 kmh 29.95 in1014.2 mb 0.00 in0.0 mm 0.00 in0.0 mm 0.00 in0.0 mm
07:40 PM 61.5°F16.4°C 51.6°F10.9°C 70% 1.8 mph WSW2.9 kmh WSW 4.5 mph7.2 kmh 29.95 in1014.2 mb 0.00 in0.0 mm 0.00 in0.0 mm 0.00 in0.0 mm
07:45 PM 61.2°F16.2°C 51.7°F10.9°C 71% 1.3 mph WSW2.1 kmh WSW 4.5 mph7.2 kmh 29.95 in1014.2 mb 0.00 in0.0 mm 0.00 in0.0 mm 0.00 in0.0 mm
07:50 PM 61.0°F16.1°C 51.9°F11.1°C 72% 1.3 mph WSW2.1 kmh WSW 2.7 mph4.3 kmh 29.95 in1014.2 mb 0.00 in0.0 mm 0.00 in0.0 mm 0.00 in0.0 mm
07:55 PM 60.8°F16.0°C 51.7°F10.9°C 72% 1.3 mph SW2.1 kmh SW 2.2 mph3.5 kmh 29.95 in1014.2 mb 0.00 in0.0 mm 0.00 in0.0 mm 0.00 in0.0 mm
08:00 PM 60.6°F15.9°C 51.9°F11.1°C 73% 1.3 mph SW2.1 kmh SW 2.2 mph3.5 kmh 29.95 in1014.2 mb 0.00 in0.0 mm 0.00 in0.0 mm 0.00 in0.0 mm
08:05 PM 60.3°F15.7°C 52.0°F11.1°C 74% 0.9 mph SW1.4 kmh SW 1.8 mph2.9 kmh 29.96 in1014.6 mb 0.00 in0.0 mm 0.00 in0.0 mm 0.00 in0.0 mm
08:10 PM 60.3°F15.7°C 52.0°F11.1°C 74% 0.9 mph SW1.4 kmh SW 1.3 mph2.1 kmh 29.95 in1014.2 mb 0.00 in0.0 mm 0.00 in0.0 mm 0.00 in0.0 mm
08:15 PM 60.1°F15.6°C 52.1°F11.2°C 75% 0.9 mph WSW1.4 kmh WSW 1.8 mph2.9 kmh 29.96 in1014.6 mb 0.00 in0.0 mm 0.00 in0.0 mm 0.00 in0.0 mm
08:20 PM 60.1°F15.6°C 52.1°F11.2°C 75% 0.9 mph W1.4 kmh W 1.8 mph2.9 kmh 29.96 in1014.6 mb 0.00 in0.0 mm 0.00 in0.0 mm 0.00 in0.0 mm
08:25 PM 59.7°F15.4°C 52.1°F11.2°C 76% 0.9 mph W1.4 kmh W 1.8 mph2.9 kmh 29.96 in1014.6 mb 0.00 in0.0 mm 0.00 in0.0 mm 0.00 in0.0 mm
08:30 PM 59.4°F15.2°C 51.8°F11.0°C 76% 0.9 mph W1.4 kmh W 2.2 mph3.5 kmh 29.96 in1014.6 mb 0.00 in0.0 mm 0.00 in0.0 mm 0.00 in0.0 mm
08:35 PM 59.0°F15.0°C 51.8°F11.0°C 77% 1.3 mph W2.1 kmh W 2.7 mph4.3 kmh 29.97 in1014.9 mb 0.00 in0.0 mm 0.00 in0.0 mm 0.00 in0.0 mm
08:40 PM 58.6°F14.8°C 51.8°F11.0°C 78% 1.3 mph WNW2.1 kmh WNW 2.7 mph4.3 kmh 29.96 in1014.6 mb 0.00 in0.0 mm 0.00 in0.0 mm 0.00 in0.0 mm
08:45 PM 58.6°F14.8°C 52.1°F11.2°C 79% 1.8 mph NW2.9 kmh NW 3.6 mph5.8 kmh 29.97 in1014.9 mb 0.00 in0.0 mm 0.00 in0.0 mm 0.00 in0.0 mm
08:50 PM 58.5°F14.7°C 52.0°F11.1°C 79% 1.8 mph NW2.9 kmh NW 3.6 mph5.8 kmh 29.97 in1014.9 mb 0.00 in0.0 mm 0.00 in0.0 mm 0.00 in0.0 mm
08:55 PM 58.3°F14.6°C 51.8°F11.0°C 79% 1.8 mph NW2.9 kmh NW 3.1 mph5.0 kmh 29.97 in1014.9 mb 0.00 in0.0 mm 0.00 in0.0 mm 0.00 in0.0 mm
09:00 PM 58.1°F14.5°C 52.0°F11.1°C 80% 1.8 mph NW2.9 kmh NW 3.1 mph5.0 kmh 29.97 in1014.9 mb 0.00 in0.0 mm 0.00 in0.0 mm 0.00 in0.0 mm
09:05 PM 57.9°F14.4°C 51.8°F11.0°C 80% 1.8 mph NNW2.9 kmh NNW 3.1 mph5.0 kmh 29.97 in1014.9 mb 0.00 in0.0 mm 0.00 in0.0 mm 0.00 in0.0 mm
09:10 PM 57.9°F14.4°C 52.1°F11.2°C 81% 1.8 mph NNW2.9 kmh NNW 3.1 mph5.0 kmh 29.97 in1014.9 mb 0.00 in0.0 mm 0.00 in0.0 mm 0.00 in0.0 mm
09:15 PM 57.7°F14.3°C 51.9°F11.1°C 81% 1.8 mph NNW2.9 kmh NNW 3.1 mph5.0 kmh 29.97 in1014.9 mb 0.00 in0.0 mm 0.00 in0.0 mm 0.00 in0.0 mm
09:20 PM 57.7°F14.3°C 51.9°F11.1°C 81% 1.8 mph NNW2.9 kmh NNW 3.1 mph5.0 kmh 29.97 in1014.9 mb 0.00 in0.0 mm 0.00 in0.0 mm 0.00 in0.0 mm
09:25 PM 57.6°F14.2°C 51.8°F11.0°C 81% 1.3 mph NNW2.1 kmh NNW 3.1 mph5.0 kmh 29.97 in1014.9 mb 0.00 in0.0 mm 0.00 in0.0 mm 0.00 in0.0 mm
09:30 PM 57.6°F14.2°C 51.8°F11.0°C 81% 1.3 mph N2.1 kmh N 2.2 mph3.5 kmh 29.98 in1015.2 mb 0.00 in0.0 mm 0.00 in0.0 mm 0.00 in0.0 mm
09:35 PM 57.7°F14.3°C 51.9°F11.1°C 81% 1.3 mph N2.1 kmh N 2.7 mph4.3 kmh 29.98 in1015.2 mb 0.00 in0.0 mm 0.00 in0.0 mm 0.00 in0.0 mm
09:40 PM 58.1°F14.5°C 52.0°F11.1°C 80% 1.8 mph NNE2.9 kmh NNE 5.4 mph8.7 kmh 29.98 in1015.2 mb 0.00 in0.0 mm 0.00 in0.0 mm 0.00 in0.0 mm
09:45 PM 58.6°F14.8°C 52.4°F11.3°C 80% 1.8 mph NNE2.9 kmh NNE 5.4 mph8.7 kmh 29.98 in1015.2 mb 0.00 in0.0 mm 0.00 in0.0 mm 0.00 in0.0 mm
09:50 PM 59.0°F15.0°C 52.5°F11.4°C 79% 1.3 mph N2.1 kmh N 3.6 mph5.8 kmh 29.98 in1015.2 mb 0.00 in0.0 mm 0.00 in0.0 mm 0.00 in0.0 mm
09:55 PM 59.2°F15.1°C 52.7°F11.5°C 79% 1.3 mph N2.1 kmh N 3.6 mph5.8 kmh 29.98 in1015.2 mb 0.00 in0.0 mm 0.00 in0.0 mm 0.00 in0.0 mm
10:00 PM 59.2°F15.1°C 52.3°F11.3°C 78% 1.8 mph N2.9 kmh N 3.6 mph5.8 kmh 29.98 in1015.2 mb 0.00 in0.0 mm 0.00 in0.0 mm 0.00 in0.0 mm
10:05 PM 59.4°F15.2°C 52.9°F11.6°C 79% 1.8 mph N2.9 kmh N 3.6 mph5.8 kmh 29.98 in1015.2 mb 0.00 in0.0 mm 0.00 in0.0 mm 0.00 in0.0 mm
10:10 PM 59.5°F15.3°C 53.0°F11.7°C 79% 2.2 mph N3.5 kmh N 4.0 mph6.4 kmh 29.98 in1015.2 mb 0.00 in0.0 mm 0.00 in0.0 mm 0.00 in0.0 mm
10:15 PM 59.5°F15.3°C 53.0°F11.7°C 79% 2.2 mph N3.5 kmh N 4.0 mph6.4 kmh 29.97 in1014.9 mb 0.00 in0.0 mm 0.00 in0.0 mm 0.00 in0.0 mm
10:20 PM 59.4°F15.2°C 52.9°F11.6°C 79% 1.8 mph N2.9 kmh N 3.6 mph5.8 kmh 29.98 in1015.2 mb 0.00 in0.0 mm 0.00 in0.0 mm 0.00 in0.0 mm
10:25 PM 59.5°F15.3°C 53.0°F11.7°C 79% 1.8 mph N2.9 kmh N 3.6 mph5.8 kmh 29.98 in1015.2 mb 0.00 in0.0 mm 0.00 in0.0 mm 0.00 in0.0 mm
10:30 PM 59.5°F15.3°C 53.0°F11.7°C 79% 2.2 mph NNE3.5 kmh NNE 3.6 mph5.8 kmh 29.97 in1014.9 mb 0.00 in0.0 mm 0.00 in0.0 mm 0.00 in0.0 mm
10:35 PM 59.5°F15.3°C 53.0°F11.7°C 79% 2.2 mph NNE3.5 kmh NNE 4.0 mph6.4 kmh 29.97 in1014.9 mb 0.00 in0.0 mm 0.00 in0.0 mm 0.00 in0.0 mm
10:40 PM 59.7°F15.4°C 53.2°F11.8°C 79% 2.2 mph N3.5 kmh N 6.3 mph10.1 kmh 29.98 in1015.2 mb 0.00 in0.0 mm 0.00 in0.0 mm 0.00 in0.0 mm
10:45 PM 59.9°F15.5°C 53.4°F11.9°C 79% 1.8 mph N2.9 kmh N 6.3 mph10.1 kmh 29.97 in1014.9 mb 0.00 in0.0 mm 0.00 in0.0 mm 0.00 in0.0 mm
10:50 PM 59.7°F15.4°C 53.2°F11.8°C 79% 1.8 mph N2.9 kmh N 3.1 mph5.0 kmh 29.97 in1014.9 mb 0.00 in0.0 mm 0.00 in0.0 mm 0.00 in0.0 mm
10:55 PM 59.7°F15.4°C 53.2°F11.8°C 79% 1.8 mph N2.9 kmh N 4.0 mph6.4 kmh 29.97 in1014.9 mb 0.00 in0.0 mm 0.00 in0.0 mm 0.00 in0.0 mm
11:00 PM 59.9°F15.5°C 53.4°F11.9°C 79% 1.8 mph NNW2.9 kmh NNW 4.0 mph6.4 kmh 29.97 in1014.9 mb 0.00 in0.0 mm 0.00 in0.0 mm 0.00 in0.0 mm
11:05 PM 60.1°F15.6°C 53.6°F12.0°C 79% 1.8 mph NW2.9 kmh NW 3.6 mph5.8 kmh 29.97 in1014.9 mb 0.00 in0.0 mm 0.00 in0.0 mm 0.00 in0.0 mm
11:10 PM 60.1°F15.6°C 53.6°F12.0°C 79% 1.8 mph NNW2.9 kmh NNW 5.4 mph8.7 kmh 29.97 in1014.9 mb 0.00 in0.0 mm 0.00 in0.0 mm 0.00 in0.0 mm
11:15 PM 60.1°F15.6°C 53.6°F12.0°C 79% 1.8 mph NNW2.9 kmh NNW 5.4 mph8.7 kmh 29.97 in1014.9 mb 0.00 in0.0 mm 0.00 in0.0 mm 0.00 in0.0 mm
11:20 PM 60.1°F15.6°C 53.6°F12.0°C 79% 1.8 mph NNW2.9 kmh NNW 3.6 mph5.8 kmh 29.97 in1014.9 mb 0.00 in0.0 mm 0.00 in0.0 mm 0.00 in0.0 mm
11:25 PM 60.1°F15.6°C 53.9°F12.2°C 80% 1.8 mph NNW2.9 kmh NNW 3.1 mph5.0 kmh 29.97 in1014.9 mb 0.00 in0.0 mm 0.00 in0.0 mm 0.00 in0.0 mm
11:30 PM 60.3°F15.7°C 54.1°F12.3°C 80% 1.3 mph NW2.1 kmh NW 2.7 mph4.3 kmh 29.97 in1014.9 mb 0.00 in0.0 mm 0.00 in0.0 mm 0.00 in0.0 mm
11:35 PM 60.3°F15.7°C 54.1°F12.3°C 80% 2.2 mph NW3.5 kmh NW 5.4 mph8.7 kmh 29.97 in1014.9 mb 0.00 in0.0 mm 0.00 in0.0 mm 0.00 in0.0 mm
11:40 PM 60.4°F15.8°C 53.9°F12.2°C 79% 2.7 mph NW4.3 kmh NW 6.7 mph10.8 kmh 29.97 in1014.9 mb 0.00 in0.0 mm 0.00 in0.0 mm 0.00 in0.0 mm
11:45 PM 60.4°F15.8°C 53.9°F12.2°C 79% 2.7 mph NW4.3 kmh NW 6.7 mph10.8 kmh 29.98 in1015.2 mb 0.00 in0.0 mm 0.00 in0.0 mm 0.00 in0.0 mm
11:50 PM 60.4°F15.8°C 53.9°F12.2°C 79% 2.7 mph NW4.3 kmh NW 5.8 mph9.3 kmh 29.98 in1015.2 mb 0.00 in0.0 mm 0.00 in0.0 mm 0.00 in0.0 mm
11:55 PM 60.4°F15.8°C 53.9°F12.2°C 79% 2.2 mph NW3.5 kmh NW 5.8 mph9.3 kmh 29.97 in1014.9 mb 0.00 in0.0 mm 0.00 in0.0 mm 0.00 in0.0 mm